createdAt,value
2018-09-14T00:01:08.082Z,4.83
2018-09-14T00:03:36.411Z,4.70
2018-09-14T00:06:04.633Z,5.15
2018-09-14T00:08:33.334Z,4.90
2018-09-14T00:11:01.637Z,5.03
2018-09-14T00:13:29.853Z,5.28
2018-09-14T00:15:58.133Z,5.25
2018-09-14T00:18:27.377Z,4.90
2018-09-14T00:20:55.608Z,5.15
2018-09-14T00:23:24.230Z,5.20
2018-09-14T00:25:52.587Z,5.25
2018-09-14T00:28:20.835Z,5.10
2018-09-14T00:30:49.570Z,4.53
2018-09-14T00:33:17.874Z,5.08
2018-09-14T00:35:46.247Z,4.92
2018-09-14T00:38:14.918Z,4.70
2018-09-14T00:40:43.221Z,4.78
2018-09-14T00:43:11.452Z,4.70
2018-09-14T00:45:40.515Z,4.97
2018-09-14T00:48:08.722Z,5.03
2018-09-14T00:50:37.107Z,4.92
2018-09-14T00:53:05.807Z,4.42
2018-09-14T00:55:34.100Z,4.78
2018-09-14T00:58:02.479Z,4.83
2018-09-14T01:00:31.038Z,5.05
2018-09-14T01:02:59.272Z,4.83
2018-09-14T01:05:27.566Z,4.67
2018-09-14T01:07:57.202Z,4.85
2018-09-14T01:10:25.439Z,4.50
2018-09-14T01:12:53.671Z,4.90
2018-09-14T01:15:22.034Z,5.03
2018-09-14T01:17:50.245Z,4.95
2018-09-14T01:20:19.380Z,5.22
2018-09-14T01:22:47.777Z,4.55
2018-09-14T01:25:15.999Z,5.05
2018-09-14T01:27:44.221Z,4.60
2018-09-14T01:30:13.126Z,5.33
2018-09-14T01:32:41.422Z,4.65
2018-09-14T01:35:15.331Z,4.55
2018-09-14T01:37:43.578Z,5.08
2018-09-14T01:40:11.822Z,4.78
2018-09-14T01:42:40.577Z,4.50
2018-09-14T01:45:08.807Z,4.50
2018-09-14T01:47:37.061Z,5.05
2018-09-14T01:50:06.182Z,5.17
2018-09-14T01:52:34.628Z,4.78
2018-09-14T01:55:02.847Z,5.15
2018-09-14T01:57:31.442Z,4.87
2018-09-14T01:59:59.702Z,4.65
2018-09-14T02:02:29.093Z,4.80
2018-09-14T02:04:59.441Z,4.62
2018-09-14T02:07:27.662Z,4.72
2018-09-14T02:09:57.582Z,4.90
2018-09-14T02:12:25.807Z,4.97
2018-09-14T02:14:54.031Z,4.75
2018-09-14T02:17:22.470Z,4.78
2018-09-14T02:19:50.861Z,5.08
2018-09-14T02:22:19.235Z,4.35
2018-09-14T02:24:47.814Z,4.67
2018-09-14T02:27:16.043Z,4.78
2018-09-14T02:29:44.497Z,4.85
2018-09-14T02:32:12.783Z,4.80
2018-09-14T02:34:41.075Z,4.70
2018-09-14T02:37:09.301Z,5.08
2018-09-14T02:39:37.578Z,4.97
2018-09-14T02:42:06.090Z,4.60
2018-09-14T02:44:34.325Z,4.65
2018-09-14T02:47:03.431Z,4.40
2018-09-14T02:49:31.659Z,4.53
2018-09-14T02:51:59.971Z,4.70
2018-09-14T02:54:28.269Z,4.72
2018-09-14T02:56:56.499Z,4.30
2018-09-14T02:59:24.710Z,4.55
2018-09-14T03:01:53.602Z,4.42
2018-09-14T03:04:21.986Z,4.30
2018-09-14T03:06:50.305Z,4.03
2018-09-14T03:09:18.837Z,4.15
2018-09-14T03:11:47.167Z,4.00
2018-09-14T03:14:15.478Z,4.53
2018-09-14T03:16:44.192Z,4.10
2018-09-14T03:19:12.417Z,3.90
2018-09-14T03:21:41.147Z,4.22
2018-09-14T03:24:09.830Z,4.20
2018-09-14T03:26:38.066Z,3.87
2018-09-14T03:29:06.376Z,4.10
2018-09-14T03:31:35.183Z,4.20
2018-09-14T03:34:03.527Z,3.70
2018-09-14T03:36:31.738Z,4.40
2018-09-14T03:39:00.825Z,4.00
2018-09-14T03:41:29.064Z,3.60
2018-09-14T03:43:57.309Z,3.80
2018-09-14T03:46:26.069Z,3.92
2018-09-14T03:48:54.286Z,3.62
2018-09-14T03:51:22.490Z,3.70
2018-09-14T03:53:51.710Z,3.85
2018-09-14T03:56:19.949Z,3.40
2018-09-14T03:58:48.158Z,3.50
2018-09-14T04:01:16.530Z,3.45
2018-09-14T04:03:44.766Z,3.50
2018-09-14T04:06:13.075Z,3.40
2018-09-14T04:08:41.447Z,3.50
2018-09-14T04:11:09.895Z,3.27
2018-09-14T04:13:38.110Z,3.45
2018-09-14T04:16:07.238Z,3.42
2018-09-14T04:18:35.467Z,3.17
2018-09-14T04:21:03.831Z,3.10
2018-09-14T04:23:32.821Z,3.60
2018-09-14T04:26:01.029Z,3.33
2018-09-14T04:28:29.326Z,2.83
2018-09-14T04:30:57.693Z,3.30
2018-09-14T04:33:25.914Z,2.92
2018-09-14T04:35:54.221Z,3.33
2018-09-14T04:38:22.680Z,3.02
2018-09-14T04:40:50.907Z,3.10
2018-09-14T04:43:19.138Z,3.08
2018-09-14T04:45:47.581Z,3.12
2018-09-14T04:48:15.824Z,2.98
2018-09-14T04:50:44.081Z,3.17
2018-09-14T04:53:12.922Z,3.00
2018-09-14T04:55:41.145Z,3.17
2018-09-14T04:58:09.450Z,3.10
2018-09-14T05:00:38.873Z,3.17
2018-09-14T05:03:07.131Z,2.75
2018-09-14T05:05:36.555Z,3.10
2018-09-14T05:08:05.237Z,3.20
2018-09-14T05:10:33.461Z,2.92
2018-09-14T05:13:01.688Z,2.98
2018-09-14T05:15:30.348Z,3.30
2018-09-14T05:18:00.170Z,3.08
2018-09-14T05:20:28.498Z,3.12
2018-09-14T05:22:57.562Z,2.92
2018-09-14T05:25:26.370Z,2.90
2018-09-14T05:27:55.150Z,2.90
2018-09-14T05:30:23.389Z,2.72
2018-09-14T05:32:51.617Z,2.90
2018-09-14T05:35:19.961Z,2.58
2018-09-14T05:37:48.186Z,2.52
2018-09-14T05:40:16.417Z,2.70
2018-09-14T05:42:45.729Z,2.70
2018-09-14T05:45:14.242Z,2.85
2018-09-14T05:47:42.481Z,2.60
2018-09-14T05:50:10.978Z,2.52
2018-09-14T05:52:39.189Z,2.50
2018-09-14T05:55:07.409Z,2.55
2018-09-14T05:57:36.306Z,2.42
2018-09-14T06:00:04.574Z,2.30
2018-09-14T06:02:32.777Z,2.33
2018-09-14T06:05:01.346Z,2.60
2018-09-14T06:07:29.642Z,2.12
2018-09-14T06:09:57.966Z,2.15
2018-09-14T06:12:26.383Z,2.10
2018-09-14T06:14:54.610Z,1.90
2018-09-14T06:17:22.902Z,1.82
2018-09-14T06:19:52.087Z,2.08
2018-09-14T06:22:20.380Z,2.30
2018-09-14T06:24:48.698Z,2.30
2018-09-14T06:27:17.886Z,2.10
2018-09-14T06:29:46.098Z,2.20
2018-09-14T06:32:14.331Z,2.85
2018-09-14T06:34:42.725Z,3.27
2018-09-14T06:37:11.168Z,2.60
2018-09-14T06:39:39.427Z,3.10
2018-09-14T06:42:08.078Z,2.75
2018-09-14T06:44:36.407Z,2.80
2018-09-14T06:47:04.649Z,2.62
2018-09-14T06:49:33.318Z,2.17
2018-09-14T06:52:01.575Z,2.67
2018-09-14T06:54:29.833Z,2.20
2018-09-14T06:56:58.197Z,2.55
2018-09-14T06:59:26.496Z,2.17
2018-09-14T07:01:54.800Z,2.05
2018-09-14T07:04:23.467Z,2.30
2018-09-14T07:06:51.687Z,1.90
2018-09-14T07:09:19.929Z,1.90
2018-09-14T07:11:48.716Z,2.30
2018-09-14T07:14:16.971Z,1.70
2018-09-14T07:16:45.203Z,1.98
2018-09-14T07:19:14.727Z,1.87
2018-09-14T07:21:42.955Z,2.05
2018-09-14T07:24:11.428Z,1.60
2018-09-14T07:26:40.005Z,1.80
2018-09-14T07:29:08.931Z,1.90
2018-09-14T07:31:37.286Z,1.67
2018-09-14T07:34:05.761Z,1.60
2018-09-14T07:36:34.119Z,1.85
2018-09-14T07:39:02.351Z,1.80
2018-09-14T07:41:30.906Z,1.82
2018-09-14T07:43:59.235Z,1.57
2018-09-14T07:46:27.543Z,1.57
2018-09-14T07:48:55.944Z,1.50
2018-09-14T07:51:24.166Z,1.60
2018-09-14T07:53:52.394Z,1.60
2018-09-14T07:56:21.558Z,1.50
2018-09-14T07:58:49.850Z,1.60
2018-09-14T08:01:18.211Z,1.60
2018-09-14T08:03:46.638Z,1.60
2018-09-14T08:06:14.925Z,1.60
2018-09-14T08:08:43.167Z,1.40
2018-09-14T08:11:11.754Z,1.40
2018-09-14T08:13:39.984Z,1.50
2018-09-14T08:16:08.236Z,1.55
2018-09-14T08:18:38.538Z,1.70
2018-09-14T08:21:06.829Z,1.70
2018-09-14T08:23:35.062Z,1.37
2018-09-14T08:26:03.553Z,1.30
2018-09-14T08:28:31.783Z,1.45
2018-09-14T08:31:00.435Z,1.65
2018-09-14T08:33:28.726Z,1.25
2018-09-14T08:35:57.015Z,1.25
2018-09-14T08:38:25.243Z,1.45
2018-09-14T08:40:54.658Z,1.35
2018-09-14T08:43:22.877Z,1.50
2018-09-14T08:45:51.786Z,1.40
2018-09-14T08:48:20.039Z,1.57
2018-09-14T08:50:48.281Z,1.20
2018-09-14T08:53:16.558Z,1.10
2018-09-14T08:55:44.802Z,1.60
2018-09-14T08:58:13.052Z,1.27
2018-09-14T09:00:43.475Z,1.37
2018-09-14T09:03:11.602Z,1.35
2018-09-14T09:05:39.834Z,1.50
2018-09-14T09:08:08.173Z,1.57
2018-09-14T09:10:36.414Z,1.15
2018-09-14T09:13:04.635Z,1.30
2018-09-14T09:15:32.997Z,1.52
2018-09-14T09:18:01.343Z,1.15
2018-09-14T09:20:29.658Z,1.45
2018-09-14T09:22:59.072Z,1.30
2018-09-14T09:25:27.310Z,1.30
2018-09-14T09:27:55.691Z,1.20
2018-09-14T09:30:24.603Z,1.20
2018-09-14T09:32:53.834Z,1.07
2018-09-14T09:35:22.171Z,1.30
2018-09-14T09:37:50.427Z,1.17
2018-09-14T09:40:18.659Z,1.35
2018-09-14T09:42:47.642Z,1.20
2018-09-14T09:45:15.863Z,1.27
2018-09-14T09:47:44.183Z,1.20
2018-09-14T09:50:12.763Z,1.25
2018-09-14T09:52:40.989Z,1.20
2018-09-14T09:55:09.219Z,1.20
2018-09-14T09:57:37.706Z,1.10
2018-09-14T10:00:09.608Z,1.20
2018-09-14T10:02:39.738Z,1.40
2018-09-14T10:05:13.281Z,1.30
2018-09-14T10:07:42.062Z,1.10
2018-09-14T10:10:12.050Z,1.05
2018-09-14T10:12:40.588Z,1.30
2018-09-14T10:15:08.931Z,1.20
2018-09-14T10:17:37.098Z,1.00
2018-09-14T10:20:05.806Z,1.10
2018-09-14T10:22:34.123Z,1.20
2018-09-14T10:25:02.343Z,1.25
2018-09-14T10:27:31.186Z,1.60
2018-09-14T10:29:59.418Z,1.98
2018-09-14T10:32:27.654Z,2.52
2018-09-14T10:34:56.438Z,2.20
2018-09-14T10:37:24.700Z,2.62
2018-09-14T10:39:52.946Z,2.90
2018-09-14T10:42:22.051Z,3.35
2018-09-14T10:44:50.284Z,3.27
2018-09-14T10:47:18.730Z,3.70
2018-09-14T10:49:47.306Z,3.42
2018-09-14T10:52:15.567Z,3.40
2018-09-14T10:54:43.862Z,3.42
2018-09-14T10:57:12.522Z,3.60
2018-09-14T10:59:40.987Z,3.40
2018-09-14T11:02:09.306Z,2.92
2018-09-14T11:04:42.157Z,3.30
2018-09-14T11:07:10.457Z,3.42
2018-09-14T11:09:38.635Z,3.30
2018-09-14T11:12:07.821Z,3.50
2018-09-14T11:14:36.260Z,3.15
2018-09-14T11:17:04.490Z,2.80
2018-09-14T11:19:32.769Z,3.50
2018-09-14T11:22:01.002Z,2.60
2018-09-14T11:24:29.327Z,2.75
2018-09-14T11:26:57.757Z,2.77
2018-09-14T11:29:26.005Z,2.85
2018-09-14T11:31:54.302Z,2.42
2018-09-14T11:34:22.627Z,2.90
2018-09-14T11:36:51.823Z,2.87
2018-09-14T11:39:20.046Z,2.60
2018-09-14T11:41:48.304Z,2.62
2018-09-14T11:44:16.642Z,2.80
2018-09-14T11:46:45.283Z,2.80
2018-09-14T11:49:13.610Z,2.42
2018-09-14T11:51:41.918Z,2.75
2018-09-14T11:54:10.391Z,2.30
2018-09-14T11:56:38.584Z,2.50
2018-09-14T11:59:06.827Z,2.20
2018-09-14T12:01:35.504Z,2.60
2018-09-14T12:04:03.738Z,2.10
2018-09-14T12:06:33.102Z,2.52
2018-09-14T12:09:01.871Z,2.35
2018-09-14T12:11:30.113Z,1.90
2018-09-14T12:13:58.529Z,2.30
2018-09-14T12:16:27.072Z,2.15
2018-09-14T12:18:55.285Z,2.02
2018-09-14T12:21:23.526Z,2.00
2018-09-14T12:23:52.369Z,2.02
2018-09-14T12:26:20.583Z,1.95
2018-09-14T12:28:48.802Z,1.72
2018-09-14T12:31:17.705Z,1.82
2018-09-14T12:33:45.946Z,1.62
2018-09-14T12:36:14.182Z,2.05
2018-09-14T12:38:42.831Z,2.00
2018-09-14T12:41:11.068Z,1.95
2018-09-14T12:43:39.302Z,1.60
2018-09-14T12:46:08.382Z,1.70
2018-09-14T12:48:36.757Z,1.80
2018-09-14T12:51:04.978Z,1.80
2018-09-14T12:53:33.721Z,1.55
2018-09-14T12:56:02.029Z,1.70
2018-09-14T12:58:30.321Z,1.70
2018-09-14T13:00:58.880Z,2.02
2018-09-14T13:03:27.122Z,1.70
2018-09-14T13:05:55.370Z,1.70
2018-09-14T13:08:24.823Z,1.67
2018-09-14T13:10:53.059Z,1.80
2018-09-14T13:13:21.285Z,1.62
2018-09-14T13:15:49.958Z,1.87
2018-09-14T13:18:18.186Z,1.77
2018-09-14T13:20:46.400Z,1.65
2018-09-14T13:23:15.293Z,1.57
2018-09-14T13:25:43.534Z,1.90
2018-09-14T13:28:11.843Z,1.80
2018-09-14T13:30:40.767Z,1.60
2018-09-14T13:33:09.072Z,1.40
2018-09-14T13:35:37.309Z,1.57
2018-09-14T13:38:05.758Z,1.45
2018-09-14T13:40:34.057Z,1.60
2018-09-14T13:43:02.925Z,1.82
2018-09-14T13:45:31.319Z,1.60
2018-09-14T13:47:59.699Z,2.00
2018-09-14T13:50:28.082Z,2.10
2018-09-14T13:52:57.379Z,1.90
2018-09-14T13:55:25.535Z,2.25
2018-09-14T13:57:53.867Z,2.00
2018-09-14T14:00:22.167Z,2.00
2018-09-14T14:02:50.429Z,2.10
2018-09-14T14:05:20.302Z,2.40
2018-09-14T14:07:48.587Z,2.08
2018-09-14T14:10:16.971Z,2.08
2018-09-14T14:12:45.131Z,2.10
2018-09-14T14:15:13.454Z,2.00
2018-09-14T14:17:41.811Z,1.85
2018-09-14T14:20:10.037Z,2.00
2018-09-14T14:22:39.685Z,1.87
2018-09-14T14:25:07.917Z,2.27
2018-09-14T14:27:36.146Z,2.25
2018-09-14T14:30:04.433Z,1.98
2018-09-14T14:32:32.691Z,2.10
2018-09-14T14:35:00.947Z,1.80
2018-09-14T14:37:29.776Z,1.85
2018-09-14T14:39:58.026Z,1.90
2018-09-14T14:42:26.243Z,2.12
2018-09-14T14:44:55.147Z,1.80
2018-09-14T14:47:23.489Z,2.10
2018-09-14T14:49:51.824Z,1.90
2018-09-14T14:52:20.062Z,1.90
2018-09-14T14:54:48.327Z,1.70
2018-09-14T14:57:16.555Z,1.67
2018-09-14T14:59:45.297Z,1.90
2018-09-14T15:02:13.548Z,1.90
2018-09-14T15:04:41.816Z,1.82
2018-09-14T15:07:10.909Z,1.87
2018-09-14T15:09:39.239Z,1.55
2018-09-14T15:12:07.879Z,1.70
2018-09-14T15:14:36.176Z,1.62
2018-09-14T15:17:04.407Z,2.00
2018-09-14T15:19:32.719Z,1.47
2018-09-14T15:22:01.291Z,2.05
2018-09-14T15:24:29.626Z,2.33
2018-09-14T15:26:57.869Z,1.82
2018-09-14T15:29:26.484Z,1.75
2018-09-14T15:31:54.818Z,1.70
2018-09-14T15:34:23.082Z,1.87
2018-09-14T15:36:51.662Z,1.72
2018-09-14T15:39:19.894Z,1.57
2018-09-14T15:41:48.197Z,1.90
2018-09-14T15:44:17.736Z,2.00
2018-09-14T15:46:45.970Z,1.40
2018-09-14T15:49:14.266Z,1.57
2018-09-14T15:51:42.487Z,1.72
2018-09-14T15:54:10.907Z,1.90
2018-09-14T15:56:39.137Z,1.55
2018-09-14T15:59:09.154Z,1.60
2018-09-14T16:01:37.552Z,1.55
2018-09-14T16:04:05.802Z,1.60
2018-09-14T16:06:34.783Z,1.72
2018-09-14T16:09:03.055Z,1.80
2018-09-14T16:11:31.287Z,1.50
2018-09-14T16:14:01.568Z,1.70
2018-09-14T16:16:29.932Z,1.57
2018-09-14T16:18:58.338Z,1.37
2018-09-14T16:21:27.623Z,1.52
2018-09-14T16:23:55.874Z,1.60
2018-09-14T16:26:24.122Z,1.70
2018-09-14T16:28:52.854Z,1.67
2018-09-14T16:31:21.119Z,1.72
2018-09-14T16:33:49.363Z,1.70
2018-09-14T16:36:17.742Z,1.50
2018-09-14T16:38:46.010Z,1.52
2018-09-14T16:41:14.262Z,1.52
2018-09-14T16:43:43.146Z,1.87
2018-09-14T16:46:11.398Z,1.55
2018-09-14T16:48:39.643Z,1.98
2018-09-14T16:51:07.936Z,1.67
2018-09-14T16:53:36.207Z,1.90
2018-09-14T16:56:04.434Z,1.77
2018-09-14T16:58:33.408Z,1.85
2018-09-14T17:01:01.648Z,1.62
2018-09-14T17:03:33.271Z,1.60
2018-09-14T17:06:01.563Z,1.67
2018-09-14T17:08:29.766Z,2.00
2018-09-14T17:10:57.987Z,1.70
2018-09-14T17:13:26.547Z,1.75
2018-09-14T17:15:54.874Z,1.92
2018-09-14T17:18:23.294Z,2.00
2018-09-14T17:20:52.186Z,1.62
2018-09-14T17:23:20.510Z,1.70
2018-09-14T17:25:48.795Z,2.00
2018-09-14T17:28:17.543Z,1.90
2018-09-14T17:30:46.003Z,1.80
2018-09-14T17:33:14.248Z,2.00
2018-09-14T17:35:43.004Z,2.00
2018-09-14T17:38:11.279Z,2.02
2018-09-14T17:40:39.533Z,2.20
2018-09-14T17:43:08.132Z,2.00
2018-09-14T17:45:36.468Z,2.00
2018-09-14T17:48:04.722Z,2.40
2018-09-14T17:50:33.013Z,2.35
2018-09-14T17:53:01.295Z,2.90
2018-09-14T17:55:29.688Z,2.60
2018-09-14T17:57:58.258Z,2.35
2018-09-14T18:00:26.586Z,2.67
2018-09-14T18:02:54.825Z,2.70
2018-09-14T18:05:24.927Z,2.72
2018-09-14T18:07:53.260Z,2.30
2018-09-14T18:10:21.514Z,2.70
2018-09-14T18:12:50.113Z,2.52
2018-09-14T18:15:18.378Z,2.40
2018-09-14T18:17:47.896Z,2.47
2018-09-14T18:20:17.102Z,2.50
2018-09-14T18:22:45.346Z,2.37
2018-09-14T18:25:13.688Z,2.30
2018-09-14T18:27:42.541Z,2.02
2018-09-14T18:30:10.866Z,2.90
2018-09-14T18:32:39.487Z,2.60
2018-09-14T18:35:08.055Z,2.75
2018-09-14T18:37:36.639Z,2.50
2018-09-14T18:40:05.118Z,2.55
2018-09-14T18:42:33.938Z,2.40
2018-09-14T18:45:02.203Z,3.02
2018-09-14T18:47:30.979Z,2.62
2018-09-14T18:49:59.776Z,2.70
2018-09-14T18:52:28.097Z,3.30
2018-09-14T18:54:56.721Z,2.75
2018-09-14T18:57:25.701Z,2.65
2018-09-14T18:59:54.401Z,3.20
2018-09-14T19:02:23.224Z,3.35
2018-09-14T19:04:52.318Z,3.08
2018-09-14T19:07:20.846Z,3.58
2018-09-14T19:09:49.473Z,3.20
2018-09-14T19:12:18.395Z,3.00
2018-09-14T19:14:47.032Z,3.05
2018-09-14T19:17:15.347Z,3.50
2018-09-14T19:19:45.197Z,3.15
2018-09-14T19:22:13.810Z,3.37
2018-09-14T19:24:42.164Z,2.87
2018-09-14T19:27:11.182Z,3.60
2018-09-14T19:29:39.869Z,2.67
2018-09-14T19:32:08.452Z,3.65
2018-09-14T19:34:37.348Z,3.27
2018-09-14T19:37:06.131Z,3.02
2018-09-14T19:39:34.469Z,3.55
2018-09-14T19:42:03.505Z,3.27
2018-09-14T19:44:32.216Z,3.10
2018-09-14T19:47:00.831Z,3.15
2018-09-14T19:49:29.977Z,3.02
2018-09-14T19:51:58.636Z,2.92
2018-09-14T19:54:27.026Z,3.22
2018-09-14T19:56:55.772Z,2.87
2018-09-14T19:59:24.023Z,3.20
2018-09-14T20:01:52.370Z,3.02
2018-09-14T20:04:22.821Z,2.98
2018-09-14T20:06:51.416Z,2.83
2018-09-14T20:09:19.876Z,3.35
2018-09-14T20:11:48.338Z,2.70
2018-09-14T20:14:16.708Z,2.62
2018-09-14T20:16:44.980Z,2.85
2018-09-14T20:19:13.282Z,2.90
2018-09-14T20:21:41.623Z,2.58
2018-09-14T20:24:10.049Z,2.70
2018-09-14T20:26:39.506Z,2.80
2018-09-14T20:29:07.767Z,2.50
2018-09-14T20:31:35.986Z,2.55
2018-09-14T20:34:04.406Z,2.67
2018-09-14T20:36:32.662Z,2.80
2018-09-14T20:39:00.914Z,2.60
2018-09-14T20:41:29.728Z,2.70
2018-09-14T20:43:57.954Z,2.40
2018-09-14T20:46:26.199Z,2.40
2018-09-14T20:48:55.254Z,2.50
2018-09-14T20:51:23.540Z,2.75
2018-09-14T20:53:51.794Z,2.75
2018-09-14T20:56:20.465Z,2.85
2018-09-14T20:58:48.724Z,2.65
2018-09-14T21:01:17.050Z,2.47
2018-09-14T21:03:45.596Z,2.50
2018-09-14T21:06:14.396Z,2.80
2018-09-14T21:08:42.647Z,2.50
2018-09-14T21:11:11.355Z,2.45
2018-09-14T21:13:39.599Z,2.58
2018-09-14T21:16:07.834Z,2.70
2018-09-14T21:18:36.452Z,2.45
2018-09-14T21:21:04.929Z,2.40
2018-09-14T21:23:33.383Z,2.60
2018-09-14T21:26:01.737Z,2.40
2018-09-14T21:28:30.074Z,2.33
2018-09-14T21:30:58.327Z,2.60
2018-09-14T21:33:27.062Z,2.75
2018-09-14T21:35:55.310Z,2.67
2018-09-14T21:38:23.549Z,2.80
2018-09-14T21:40:52.194Z,2.52
2018-09-14T21:43:20.447Z,2.60
2018-09-14T21:45:48.736Z,2.40
2018-09-14T21:48:17.276Z,2.60
2018-09-14T21:50:45.500Z,2.22
2018-09-14T21:53:13.783Z,2.50
2018-09-14T21:55:42.854Z,2.37
2018-09-14T21:58:11.159Z,2.40
2018-09-14T22:00:44.851Z,3.00
2018-09-14T22:03:13.105Z,2.80
2018-09-14T22:05:41.339Z,2.58
2018-09-14T22:08:12.463Z,2.80
2018-09-14T22:10:40.776Z,2.10
2018-09-14T22:13:09.740Z,2.42
2018-09-14T22:15:38.620Z,2.65
2018-09-14T22:18:06.861Z,2.50
2018-09-14T22:20:35.113Z,2.40
2018-09-14T22:23:03.395Z,2.17
2018-09-14T22:25:31.636Z,2.22
2018-09-14T22:27:59.874Z,2.55
2018-09-14T22:30:29.101Z,2.20
2018-09-14T22:32:57.355Z,2.25
2018-09-14T22:35:26.492Z,2.30
2018-09-14T22:37:54.854Z,2.47
2018-09-14T22:40:23.094Z,2.30
2018-09-14T22:42:51.344Z,2.30
2018-09-14T22:45:19.705Z,2.77
2018-09-14T22:47:48.008Z,2.50
2018-09-14T22:50:16.321Z,2.50
2018-09-14T22:52:45.121Z,2.85
2018-09-14T22:55:13.502Z,2.55
2018-09-14T22:57:41.903Z,2.20
2018-09-14T23:00:10.675Z,2.67
2018-09-14T23:02:39.000Z,2.70
2018-09-14T23:05:08.978Z,2.55
2018-09-14T23:07:37.306Z,2.52
2018-09-14T23:10:05.876Z,2.45
2018-09-14T23:12:34.320Z,2.30
2018-09-14T23:15:02.570Z,2.58
2018-09-14T23:17:30.809Z,2.40
2018-09-14T23:19:59.341Z,2.92
2018-09-14T23:22:27.573Z,2.45
2018-09-14T23:24:55.788Z,2.52
2018-09-14T23:27:24.381Z,2.70
2018-09-14T23:29:52.645Z,2.50
2018-09-14T23:32:20.856Z,2.80
2018-09-14T23:34:49.406Z,2.65
2018-09-14T23:37:17.618Z,2.37
2018-09-14T23:39:45.859Z,2.52
2018-09-14T23:42:14.658Z,2.95
2018-09-14T23:44:43.104Z,2.45
2018-09-14T23:47:11.506Z,2.60
2018-09-14T23:49:40.161Z,2.25
2018-09-14T23:52:08.370Z,2.60
2018-09-14T23:54:36.599Z,2.47
2018-09-14T23:57:05.233Z,2.80
2018-09-14T23:59:33.472Z,2.85
